Time;durP1;ratioP1;P1;durP2;ratioP2;P2;SDS_P1;SDS_P2;PMS_P1;PMS_P2;Temp;Humidity;BMP_temperature;BMP_pressure;BME280_temperature;BME280_humidity;BME280_pressure;Samples;Min_cycle;Max_cycle;Signal;HPM_P1;HPM_P2
2024/03/02 00:00:38;;;;;;;4.90;1.77;;;6.10;99.90;;;;;;5015514;28;20447;-80
2024/03/02 00:03:05;;;;;;;3.40;1.63;;;6.20;99.90;;;;;;5015492;28;20445;-79
2024/03/02 00:05:32;;;;;;;2.20;1.57;;;6.20;99.90;;;;;;5015522;28;20456;-79
2024/03/02 00:08:00;;;;;;;2.47;1.63;;;6.20;99.90;;;;;;5015586;28;20467;-79
2024/03/02 00:10:35;;;;;;;1.50;0.80;;;6.20;99.90;;;;;;5015235;28;20498;-80
2024/03/02 00:13:02;;;;;;;4.07;2.27;;;6.20;99.90;;;;;;5015409;28;20482;-80
2024/03/02 00:15:42;;;;;;;0.90;0.83;;;6.30;99.90;;;;;;5015449;28;20940;-80
2024/03/02 00:18:11;;;;;;;3.20;2.10;;;6.30;99.90;;;;;;5015111;28;20468;-80
2024/03/02 00:20:38;;;;;;;3.93;1.80;;;6.30;99.90;;;;;;5014978;28;20451;-80
2024/03/02 00:23:07;;;;;;;5.20;1.90;;;6.20;99.90;;;;;;5014716;28;20850;-80
2024/03/02 00:25:40;;;;;;;3.80;1.73;;;6.30;99.90;;;;;;5015144;28;20804;-80
2024/03/02 00:28:08;;;;;;;3.00;1.83;;;6.30;99.90;;;;;;5014910;28;20503;-80
2024/03/02 00:30:59;;;;;;;2.07;1.00;;;6.30;99.90;;;;;;5014969;28;20475;-80
2024/03/02 00:33:28;;;;;;;5.50;1.33;;;6.30;99.90;;;;;;5012978;28;20487;-79
2024/03/02 00:35:56;;;;;;;2.73;1.47;;;6.30;99.90;;;;;;5014845;28;20948;-80
2024/03/02 00:38:24;;;;;;;1.70;1.53;;;6.30;99.90;;;;;;5014870;28;21034;-80
2024/03/02 00:40:51;;;;;;;1.97;1.83;;;6.30;99.90;;;;;;5014699;28;20447;-80
2024/03/02 00:43:45;;;;;;;1.50;1.33;;;6.30;99.90;;;;;;5014608;28;20972;-80
2024/03/02 00:46:13;;;;;;;3.70;1.60;;;6.30;99.90;;;;;;5009070;28;20444;-80
2024/03/02 00:48:40;;;;;;;2.83;1.77;;;6.30;99.90;;;;;;5014670;28;20471;-80
2024/03/02 00:51:07;;;;;;;3.20;2.00;;;6.30;99.90;;;;;;5014638;28;20451;-80
2024/03/02 00:53:35;;;;;;;5.93;1.70;;;6.30;99.90;;;;;;5014514;28;20493;-80
2024/03/02 00:56:02;;;;;;;3.13;1.37;;;6.30;99.90;;;;;;5014539;28;20456;-80
2024/03/02 00:58:29;;;;;;;4.83;1.70;;;6.20;99.90;;;;;;5014366;28;20463;-80
2024/03/02 01:00:56;;;;;;;2.60;2.40;;;6.20;99.90;;;;;;5014300;28;20447;-80
2024/03/02 01:03:23;;;;;;;3.67;2.30;;;6.10;99.90;;;;;;5014311;28;20945;-80
2024/03/02 01:05:49;;;;;;;1.90;1.30;;;6.10;99.90;;;;;;5014434;28;20491;-80
2024/03/02 01:08:16;;;;;;;13.50;2.40;;;6.10;99.90;;;;;;5014279;28;20478;-80
2024/03/02 01:10:44;;;;;;;3.50;2.37;;;6.00;99.90;;;;;;5014528;28;20443;-80
2024/03/02 01:13:11;;;;;;;4.10;1.43;;;6.00;99.90;;;;;;5014962;28;21050;-80
2024/03/02 01:15:37;;;;;;;5.37;2.07;;;6.00;99.90;;;;;;5016040;28;20452;-80
2024/03/02 01:18:05;;;;;;;4.50;2.70;;;6.00;99.90;;;;;;5014363;28;20470;-80
2024/03/02 01:20:31;;;;;;;6.40;3.10;;;6.00;99.90;;;;;;5014373;28;20451;-80
2024/03/02 01:22:58;;;;;;;4.10;1.80;;;6.00;99.90;;;;;;5013762;28;20945;-80
2024/03/02 01:25:25;;;;;;;6.77;2.47;;;6.00;99.90;;;;;;5013948;28;20451;-80
2024/03/02 01:27:53;;;;;;;3.43;1.47;;;6.00;99.90;;;;;;5014254;28;20459;-80
2024/03/02 01:30:19;;;;;;;4.90;1.93;;;5.90;99.90;;;;;;5014010;28;20932;-80
2024/03/02 01:32:46;;;;;;;4.23;2.43;;;5.90;99.90;;;;;;5013338;28;20446;-80
2024/03/02 01:35:13;;;;;;;3.43;2.27;;;5.90;99.90;;;;;;5014020;28;20444;-80
2024/03/02 01:37:39;;;;;;;3.90;2.40;;;5.90;99.90;;;;;;5014117;28;20472;-80
2024/03/02 01:40:09;;;;;;;6.37;2.27;;;5.80;99.90;;;;;;5014083;28;20443;-80
2024/03/02 01:42:36;;;;;;;4.33;3.73;;;5.90;99.90;;;;;;5014070;28;20514;-80
2024/03/02 01:45:06;;;;;;;1.90;1.67;;;5.90;99.90;;;;;;5013973;28;20473;-80
2024/03/02 01:47:33;;;;;;;2.83;1.70;;;5.90;99.90;;;;;;5013767;28;20467;-80
2024/03/02 01:50:00;;;;;;;2.60;1.97;;;5.80;99.90;;;;;;5013732;28;20497;-80
2024/03/02 01:52:29;;;;;;;3.87;2.33;;;5.70;99.90;;;;;;5013618;28;20982;-80
2024/03/02 01:54:56;;;;;;;8.27;1.93;;;5.80;99.90;;;;;;5013693;28;20491;-80
2024/03/02 01:57:22;;;;;;;2.90;1.50;;;5.80;99.90;;;;;;5013541;28;20980;-80
2024/03/02 01:59:50;;;;;;;1.50;1.40;;;5.80;99.90;;;;;;5013792;28;20455;-80
2024/03/02 02:02:18;;;;;;;2.33;2.10;;;5.70;99.90;;;;;;5013759;28;20451;-79
2024/03/02 02:04:45;;;;;;;4.37;2.93;;;5.70;99.90;;;;;;5013727;28;20444;-80
2024/03/02 02:07:14;;;;;;;3.80;1.80;;;5.70;99.90;;;;;;5013434;28;20468;-80
2024/03/02 02:09:40;;;;;;;3.50;1.50;;;5.80;99.90;;;;;;5013763;28;20440;-80
2024/03/02 02:12:07;;;;;;;8.23;2.13;;;5.70;99.90;;;;;;5013576;28;20948;-80
2024/03/02 02:14:34;;;;;;;6.50;2.03;;;5.70;99.90;;;;;;5013659;28;20492;-80
2024/03/02 02:17:01;;;;;;;4.40;2.57;;;5.70;99.90;;;;;;5013109;28;20838;-80
2024/03/02 02:19:29;;;;;;;4.13;2.17;;;5.70;99.90;;;;;;5013659;28;20448;-80
2024/03/02 02:21:57;;;;;;;8.70;2.73;;;5.60;99.90;;;;;;5013365;28;20443;-80
2024/03/02 02:24:24;;;;;;;4.40;2.13;;;5.60;99.90;;;;;;5013205;28;20486;-79
2024/03/02 02:26:51;;;;;;;4.13;1.47;;;5.50;99.90;;;;;;5013175;28;20475;-80
2024/03/02 02:29:17;;;;;;;6.87;2.23;;;5.50;99.90;;;;;;5013357;28;20440;-80
2024/03/02 02:31:44;;;;;;;1.87;1.77;;;5.50;99.90;;;;;;5013381;28;20439;-80
2024/03/02 02:34:11;;;;;;;4.03;2.13;;;5.50;99.90;;;;;;5012903;28;21031;-80
2024/03/02 02:36:40;;;;;;;1.50;1.40;;;5.40;99.90;;;;;;5013280;28;20472;-80
2024/03/02 02:39:11;;;;;;;5.77;2.27;;;5.40;99.90;;;;;;5013484;28;20451;-79
2024/03/02 02:41:38;;;;;;;9.70;3.30;;;5.40;99.90;;;;;;5013311;28;20434;-80
2024/03/02 02:44:05;;;;;;;3.53;2.20;;;5.30;99.90;;;;;;5015223;28;20991;-80
2024/03/02 02:46:32;;;;;;;6.43;2.00;;;5.30;99.90;;;;;;5016753;28;20474;-80
2024/03/02 02:48:59;;;;;;;5.80;2.13;;;5.30;99.90;;;;;;5016562;28;20459;-80
2024/03/02 02:51:26;;;;;;;4.00;1.70;;;5.30;99.90;;;;;;5016533;28;20963;-80
2024/03/02 02:53:53;;;;;;;6.47;1.57;;;5.30;99.90;;;;;;5016260;28;20486;-80
2024/03/02 02:56:21;;;;;;;0.90;0.90;;;5.30;99.90;;;;;;5016627;28;20447;-80
2024/03/02 02:58:47;;;;;;;4.63;2.40;;;5.30;99.90;;;;;;5016537;28;20799;-80
2024/03/02 03:01:14;;;;;;;3.60;1.47;;;5.20;99.90;;;;;;5016517;28;20451;-80
2024/03/02 03:03:41;;;;;;;5.07;2.23;;;5.20;99.90;;;;;;5016439;28;20447;-80
2024/03/02 03:06:07;;;;;;;3.13;1.53;;;5.20;99.90;;;;;;5016570;28;20478;-80
2024/03/02 03:08:34;;;;;;;4.90;1.73;;;5.20;99.90;;;;;;5018034;28;20470;-80
2024/03/02 03:11:01;;;;;;;3.33;2.00;;;5.20;99.90;;;;;;5017621;28;20448;-80
2024/03/02 03:13:29;;;;;;;7.83;1.93;;;5.20;99.90;;;;;;5016477;28;20959;-80
2024/03/02 03:15:56;;;;;;;5.50;2.73;;;5.20;99.90;;;;;;5016593;28;20447;-80
2024/03/02 03:18:22;;;;;;;3.63;1.43;;;5.20;99.90;;;;;;5015970;28;20479;-79
2024/03/02 03:20:49;;;;;;;2.57;1.30;;;5.20;99.90;;;;;;5016388;28;20554;-80
2024/03/02 03:23:16;;;;;;;4.57;1.93;;;5.10;99.90;;;;;;5015936;28;20534;-80
2024/03/02 03:25:43;;;;;;;5.60;1.70;;;5.10;99.90;;;;;;5016174;28;20486;-80
2024/03/02 03:28:09;;;;;;;2.63;2.43;;;5.10;99.90;;;;;;5016027;28;20463;-80
2024/03/02 03:30:37;;;;;;;2.17;1.40;;;5.20;99.90;;;;;;5015948;28;20459;-80
2024/03/02 03:33:05;;;;;;;2.60;1.50;;;5.20;99.90;;;;;;5015932;28;20428;-79
2024/03/02 03:35:32;;;;;;;6.53;2.30;;;5.10;99.90;;;;;;5015908;28;21051;-80
2024/03/02 03:37:59;;;;;;;6.80;2.67;;;5.10;99.90;;;;;;5015866;28;20470;-80
2024/03/02 03:40:26;;;;;;;2.00;1.20;;;5.20;99.90;;;;;;5015475;28;20970;-80
2024/03/02 03:42:53;;;;;;;2.63;1.33;;;5.10;99.90;;;;;;5016167;28;20447;-80
2024/03/02 03:45:20;;;;;;;2.73;1.47;;;5.10;99.90;;;;;;5015458;28;20471;-80
2024/03/02 03:47:48;;;;;;;2.40;2.20;;;5.10;99.90;;;;;;5015494;28;20468;-80
2024/03/02 03:50:18;;;;;;;4.27;1.77;;;5.10;99.90;;;;;;5015456;28;20440;-80
2024/03/02 03:52:45;;;;;;;2.87;1.97;;;5.10;99.90;;;;;;5015733;28;20832;-80
2024/03/02 03:55:11;;;;;;;2.53;1.47;;;5.10;99.90;;;;;;5014889;28;20486;-80
2024/03/02 03:57:38;;;;;;;6.13;2.20;;;5.10;99.90;;;;;;5015513;28;20837;-80
2024/03/02 04:00:06;;;;;;;4.67;1.63;;;5.10;99.90;;;;;;5015753;28;20447;-80
2024/03/02 04:02:33;;;;;;;3.10;2.03;;;5.10;99.90;;;;;;5015397;28;20455;-80
2024/03/02 04:05:04;;;;;;;5.23;1.93;;;5.10;99.90;;;;;;5016181;28;20447;-80
2024/03/02 04:07:31;;;;;;;4.60;1.33;;;5.00;99.90;;;;;;5015347;28;20521;-80
2024/03/02 04:09:58;;;;;;;2.30;1.57;;;5.10;99.90;;;;;;5014920;28;20448;-79
2024/03/02 04:12:24;;;;;;;1.80;1.63;;;5.10;99.90;;;;;;5014955;28;20443;-80
2024/03/02 04:14:51;;;;;;;5.10;2.43;;;5.00;99.90;;;;;;5014855;28;20487;-80
2024/03/02 04:17:18;;;;;;;1.50;1.17;;;5.00;99.90;;;;;;5015040;28;20472;-80
2024/03/02 04:19:44;;;;;;;8.87;2.43;;;5.00;99.90;;;;;;5014895;28;20444;-80
2024/03/02 04:22:12;;;;;;;3.80;1.57;;;5.00;99.90;;;;;;5015845;28;20502;-79
2024/03/02 04:24:39;;;;;;;2.80;1.53;;;5.00;99.90;;;;;;5025555;28;20483;-80
2024/03/02 04:27:06;;;;;;;1.70;1.10;;;5.00;99.90;;;;;;5027977;28;20482;-80
2024/03/02 04:29:33;;;;;;;7.10;2.67;;;5.10;99.90;;;;;;5027041;28;20458;-80
2024/03/02 04:31:59;;;;;;;6.13;1.77;;;5.10;99.90;;;;;;5026986;28;20960;-80
2024/03/02 04:34:26;;;;;;;3.93;1.80;;;5.10;99.90;;;;;;5026855;28;20479;-80
2024/03/02 04:36:53;;;;;;;1.43;1.33;;;5.10;99.90;;;;;;5017458;28;20984;-80
2024/03/02 04:39:21;;;;;;;2.57;1.43;;;5.00;99.90;;;;;;5015623;28;20440;-79
2024/03/02 04:41:48;;;;;;;7.07;2.10;;;5.00;99.90;;;;;;5014988;28;20452;-79
2024/03/02 04:44:14;;;;;;;4.13;2.30;;;5.00;99.90;;;;;;5015083;28;20443;-79
2024/03/02 04:46:41;;;;;;;2.27;1.40;;;5.00;99.90;;;;;;5014901;28;20472;-79
2024/03/02 04:49:08;;;;;;;1.90;0.90;;;5.00;99.90;;;;;;5014415;28;20450;-79
2024/03/02 04:51:35;;;;;;;4.57;1.80;;;5.00;99.90;;;;;;5014846;28;20447;-79
2024/03/02 04:54:01;;;;;;;3.53;1.63;;;5.00;99.90;;;;;;5014542;28;20448;-79
2024/03/02 04:56:44;;;;;;;2.30;1.40;;;4.90;99.90;;;;;;5014544;28;20447;-80
2024/03/02 04:59:11;;;;;;;2.03;1.80;;;5.00;99.90;;;;;;5014424;28;20436;-80
2024/03/02 05:01:38;;;;;;;7.57;2.07;;;5.00;99.90;;;;;;5015093;28;20443;-80
2024/03/02 05:04:05;;;;;;;5.13;1.80;;;5.00;99.90;;;;;;5016446;28;20467;-80
2024/03/02 05:06:31;;;;;;;5.80;2.40;;;5.00;99.90;;;;;;5014343;28;20471;-79
2024/03/02 05:08:58;;;;;;;4.67;1.60;;;5.00;99.90;;;;;;5014189;28;20447;-79
2024/03/02 05:11:59;;;;;;;4.93;1.90;;;4.90;99.90;;;;;;5014394;28;20448;-79
2024/03/02 05:14:27;;;;;;;4.80;1.60;;;4.90;99.90;;;;;;5014171;28;20479;-79
2024/03/02 05:16:53;;;;;;;2.13;1.70;;;4.90;99.90;;;;;;5014219;28;20456;-79
2024/03/02 05:19:20;;;;;;;4.27;1.03;;;4.90;99.90;;;;;;5014594;28;20450;-79
2024/03/02 05:21:47;;;;;;;1.73;0.90;;;4.90;99.90;;;;;;5014256;28;20454;-79
2024/03/02 05:24:14;;;;;;;4.10;1.50;;;4.90;99.90;;;;;;5014800;28;20471;-79
2024/03/02 05:26:40;;;;;;;2.93;2.33;;;4.90;99.90;;;;;;5014215;28;20467;-79
2024/03/02 05:29:07;;;;;;;3.90;1.53;;;4.90;99.90;;;;;;5013757;28;20436;-79
2024/03/02 05:31:35;;;;;;;3.23;1.50;;;4.90;99.90;;;;;;5013936;28;20458;-79
2024/03/02 05:34:02;;;;;;;1.00;0.90;;;4.90;99.90;;;;;;5013821;28;20546;-79
2024/03/02 05:36:29;;;;;;;4.50;2.20;;;4.90;99.90;;;;;;5015435;28;20452;-79
2024/03/02 05:38:56;;;;;;;0.90;0.90;;;4.90;99.90;;;;;;5014191;28;20443;-79
2024/03/02 05:41:22;;;;;;;6.17;2.30;;;4.90;99.90;;;;;;5014376;28;20451;-80
2024/03/02 05:43:49;;;;;;;4.50;2.20;;;4.90;99.90;;;;;;5014192;28;20817;-80
2024/03/02 05:46:16;;;;;;;2.03;1.17;;;4.90;99.90;;;;;;5013966;28;20458;-79
2024/03/02 05:48:44;;;;;;;4.47;1.27;;;4.90;99.90;;;;;;5013495;28;20959;-80
2024/03/02 05:51:10;;;;;;;3.00;1.87;;;4.90;99.90;;;;;;5013879;28;20439;-80
2024/03/02 05:53:39;;;;;;;2.20;1.83;;;4.90;99.90;;;;;;5013623;28;20971;-80
2024/03/02 05:56:06;;;;;;;7.53;2.33;;;4.90;99.90;;;;;;5013805;28;20491;-79
2024/03/02 05:58:46;;;;;;;9.33;1.30;;;4.90;99.90;;;;;;5013805;28;20515;-79
2024/03/02 06:01:12;;;;;;;3.70;2.33;;;4.90;99.90;;;;;;5013447;28;20534;-79
2024/03/02 06:03:39;;;;;;;2.30;1.00;;;4.90;99.90;;;;;;5016222;28;20451;-80
2024/03/02 06:06:07;;;;;;;2.10;1.90;;;4.90;99.90;;;;;;5015766;28;20466;-80
2024/03/02 06:08:35;;;;;;;4.60;1.80;;;4.90;99.90;;;;;;5015831;28;20822;-80
2024/03/02 06:11:01;;;;;;;2.43;0.73;;;4.90;99.90;;;;;;5014112;28;20543;-79
2024/03/02 06:13:28;;;;;;;3.80;1.23;;;4.90;99.90;;;;;;5013925;28;20451;-79
2024/03/02 06:15:55;;;;;;;3.40;1.60;;;4.90;99.90;;;;;;5014092;28;20841;-80
2024/03/02 06:18:22;;;;;;;8.40;2.50;;;5.00;99.90;;;;;;5015792;28;20467;-79
2024/03/02 06:20:49;;;;;;;2.30;1.43;;;5.00;99.90;;;;;;5017820;28;20439;-79
2024/03/02 06:23:17;;;;;;;4.00;1.83;;;5.00;99.90;;;;;;5017622;28;20447;-79
2024/03/02 06:25:43;;;;;;;5.60;2.70;;;5.00;99.90;;;;;;5024200;28;20419;-81
2024/03/02 06:28:10;;;;;;;6.80;2.10;;;5.00;99.90;;;;;;5022766;28;20464;-80
2024/03/02 06:30:37;;;;;;;2.93;1.47;;;5.00;99.90;;;;;;5030021;28;20448;-80
2024/03/02 06:33:05;;;;;;;2.00;1.20;;;5.10;99.90;;;;;;5023529;28;20964;-80
2024/03/02 06:35:32;;;;;;;1.60;1.50;;;5.10;99.90;;;;;;5018077;28;20483;-80
2024/03/02 06:37:59;;;;;;;3.97;2.53;;;5.20;99.90;;;;;;5017578;28;20468;-80
2024/03/02 06:40:27;;;;;;;1.80;1.70;;;5.20;99.90;;;;;;5017306;28;20814;-80
2024/03/02 06:42:54;;;;;;;2.00;1.73;;;5.20;99.90;;;;;;5017088;28;20956;-80
2024/03/02 06:45:21;;;;;;;4.83;2.07;;;5.30;99.90;;;;;;5017171;28;20444;-80
2024/03/02 06:47:48;;;;;;;24.63;3.23;;;5.30;99.90;;;;;;5017187;28;20828;-80
2024/03/02 06:50:14;;;;;;;3.33;2.10;;;5.40;99.90;;;;;;5017099;28;20444;-80
2024/03/02 06:52:42;;;;;;;1.80;1.70;;;5.40;99.90;;;;;;5017254;28;20443;-80
2024/03/02 06:55:09;;;;;;;4.87;2.00;;;5.50;99.90;;;;;;5017096;28;20566;-80
2024/03/02 06:57:37;;;;;;;1.10;1.10;;;5.50;99.90;;;;;;5016537;28;20455;-79
2024/03/02 07:00:05;;;;;;;4.50;2.57;;;5.50;99.90;;;;;;5017255;28;20454;-80
2024/03/02 07:02:32;;;;;;;2.70;1.80;;;5.50;99.90;;;;;;5018708;28;20455;-79
2024/03/02 07:04:59;;;;;;;7.43;2.40;;;5.60;99.90;;;;;;5017776;28;21002;-80
2024/03/02 07:07:25;;;;;;;4.67;2.23;;;5.60;99.90;;;;;;5016969;28;20554;-80
2024/03/02 07:09:52;;;;;;;8.30;2.80;;;5.60;99.90;;;;;;5017558;28;20432;-80
2024/03/02 07:12:19;;;;;;;4.63;2.80;;;5.70;99.90;;;;;;5017414;28;20955;-80
2024/03/02 07:17:31;;;;;;;1.63;1.47;;;5.80;99.90;;;;;;5016634;28;20487;-79
2024/03/02 07:19:58;;;;;;;3.80;2.17;;;5.90;99.90;;;;;;5017590;28;20448;-79
2024/03/02 07:22:25;;;;;;;3.63;1.73;;;6.00;99.90;;;;;;5016556;28;20452;-79
2024/03/02 07:24:52;;;;;;;3.03;1.93;;;6.00;99.90;;;;;;5019554;28;20463;-80
2024/03/02 07:27:19;;;;;;;4.90;1.83;;;6.10;99.90;;;;;;5016571;28;20821;-79
2024/03/02 07:29:47;;;;;;;2.40;0.83;;;6.10;99.90;;;;;;5015214;28;20455;-80
2024/03/02 07:32:13;;;;;;;14.57;2.27;;;6.20;99.90;;;;;;5016181;28;20459;-79
2024/03/02 07:34:40;;;;;;;4.23;2.07;;;6.20;99.90;;;;;;5016510;28;20484;-79
2024/03/02 07:37:07;;;;;;;1.43;1.27;;;6.20;99.90;;;;;;5015989;28;21014;-81
2024/03/02 07:39:34;;;;;;;1.70;1.10;;;6.20;99.90;;;;;;5018477;28;20471;-78
2024/03/02 07:42:01;;;;;;;3.30;1.60;;;6.30;99.90;;;;;;5016319;28;20792;-79
2024/03/02 07:44:28;;;;;;;4.73;1.67;;;6.30;99.90;;;;;;5016045;28;20439;-79
2024/03/02 07:46:56;;;;;;;2.20;1.27;;;6.20;99.90;;;;;;5033453;28;20460;-78
2024/03/02 07:49:23;;;;;;;2.93;1.90;;;6.10;99.90;;;;;;5034912;28;20463;-78
2024/03/02 07:51:50;;;;;;;4.00;2.40;;;6.10;99.90;;;;;;5027281;28;20963;-78
2024/03/02 07:54:16;;;;;;;1.50;1.30;;;6.10;99.90;;;;;;5015682;28;20436;-78
2024/03/02 07:56:43;;;;;;;4.93;1.47;;;6.20;99.90;;;;;;5015451;28;20495;-78
2024/03/02 07:59:10;;;;;;;5.93;2.20;;;6.20;99.90;;;;;;5015570;28;20464;-78
2024/03/02 08:01:37;;;;;;;1.90;1.70;;;6.10;99.90;;;;;;5015444;28;20439;-78
2024/03/02 08:04:05;;;;;;;2.30;1.57;;;6.20;99.90;;;;;;5016252;28;20451;-79
2024/03/02 08:06:32;;;;;;;1.80;1.30;;;6.20;99.90;;;;;;5015607;28;20992;-77
2024/03/02 08:09:00;;;;;;;12.80;2.13;;;6.20;99.90;;;;;;5015726;28;20443;-79
2024/03/02 08:11:28;;;;;;;6.33;2.20;;;6.20;99.90;;;;;;5015476;28;20804;-78
2024/03/02 08:13:55;;;;;;;3.87;1.30;;;6.30;99.90;;;;;;5015353;28;20451;-78
2024/03/02 08:16:23;;;;;;;3.60;1.33;;;6.40;99.90;;;;;;5015280;28;20527;-78
2024/03/02 08:18:50;;;;;;;2.30;2.10;;;6.30;99.90;;;;;;5015598;28;20543;-78
2024/03/02 08:21:18;;;;;;;3.83;1.90;;;7.10;99.90;;;;;;5016766;28;20458;-79
2024/03/02 08:23:45;;;;;;;3.37;1.20;;;6.50;99.90;;;;;;5017484;28;20825;-79
2024/03/02 08:26:12;;;;;;;5.20;2.43;;;6.70;99.90;;;;;;5015277;28;20444;-78
2024/03/02 08:28:40;;;;;;;6.40;2.07;;;6.70;99.90;;;;;;5015302;28;20444;-78
2024/03/02 08:31:07;;;;;;;1.13;1.03;;;6.80;99.90;;;;;;5014978;28;20452;-78
2024/03/02 08:33:33;;;;;;;2.30;1.67;;;6.90;99.90;;;;;;5015167;28;20442;-78
2024/03/02 08:36:01;;;;;;;2.90;2.10;;;7.00;99.90;;;;;;5017563;28;20491;-76
2024/03/02 08:38:29;;;;;;;4.77;1.50;;;7.00;99.90;;;;;;5016052;28;20468;-76
2024/03/02 08:40:57;;;;;;;1.17;1.00;;;7.10;99.90;;;;;;5015724;28;20502;-76
2024/03/02 08:43:23;;;;;;;1.30;1.20;;;7.30;99.90;;;;;;5015262;28;20440;-78
2024/03/02 08:45:50;;;;;;;3.73;1.70;;;7.40;99.90;;;;;;5015056;28;20455;-77
2024/03/02 08:48:17;;;;;;;1.90;1.20;;;7.50;99.90;;;;;;5014756;28;20471;-77
2024/03/02 08:50:44;;;;;;;1.40;1.10;;;7.60;99.90;;;;;;5014950;28;20444;-77
2024/03/02 08:53:11;;;;;;;4.03;1.73;;;7.80;99.90;;;;;;5014725;28;20440;-78
2024/03/02 08:55:39;;;;;;;5.43;2.57;;;8.00;99.90;;;;;;5015890;28;20487;-78
2024/03/02 08:58:05;;;;;;;2.40;1.23;;;8.30;99.90;;;;;;5015528;28;20471;-77
2024/03/02 09:00:32;;;;;;;1.60;1.07;;;8.60;99.90;;;;;;5015190;28;20454;-78
2024/03/02 09:02:59;;;;;;;2.93;1.50;;;8.80;99.90;;;;;;5015506;28;20454;-78
2024/03/02 09:05:26;;;;;;;4.10;1.17;;;9.10;99.90;;;;;;5016109;28;20459;-77
2024/03/02 09:07:52;;;;;;;1.07;0.97;;;9.30;99.90;;;;;;5015058;28;20472;-78
2024/03/02 09:10:19;;;;;;;2.20;1.03;;;9.60;99.90;;;;;;5015333;28;20451;-77
2024/03/02 09:12:47;;;;;;;2.80;1.10;;;9.90;99.90;;;;;;5014987;28;20466;-77
2024/03/02 09:15:14;;;;;;;1.90;1.27;;;10.50;99.90;;;;;;5014517;28;20448;-78
2024/03/02 09:17:41;;;;;;;3.57;2.23;;;11.60;99.90;;;;;;5014663;28;20467;-78
2024/03/02 09:20:08;;;;;;;4.23;1.00;;;12.80;99.90;;;;;;5014332;28;20475;-78
2024/03/02 09:22:35;;;;;;;1.27;0.80;;;13.90;99.90;;;;;;5014469;28;20449;-78
2024/03/02 09:25:01;;;;;;;3.80;1.40;;;15.20;99.90;;;;;;5014826;28;20522;-78
2024/03/02 09:27:28;;;;;;;2.33;1.10;;;16.50;99.90;;;;;;5014299;28;20995;-78
2024/03/02 09:29:56;;;;;;;1.63;0.90;;;17.80;99.90;;;;;;5014945;28;20458;-78
2024/03/02 09:32:23;;;;;;;1.13;0.90;;;18.90;99.90;;;;;;5014635;28;20444;-78
2024/03/02 09:34:50;;;;;;;1.90;1.57;;;18.40;99.70;;;;;;5015074;28;20467;-78
2024/03/02 09:37:16;;;;;;;2.40;1.03;;;19.00;98.10;;;;;;5014651;28;21065;-78
2024/03/02 09:39:45;;;;;;;1.73;1.10;;;20.10;96.20;;;;;;5015223;28;20435;-78
2024/03/02 09:42:13;;;;;;;2.50;1.23;;;20.90;94.50;;;;;;5015343;28;20454;-78
2024/03/02 09:44:40;;;;;;;1.00;0.80;;;21.40;92.30;;;;;;5015063;28;20446;-78
2024/03/02 09:47:09;;;;;;;1.53;1.40;;;21.40;90.40;;;;;;5015385;28;20455;-78
2024/03/02 09:49:36;;;;;;;1.03;1.03;;;21.70;88.40;;;;;;5016399;28;20446;-78
2024/03/02 09:52:05;;;;;;;2.10;1.80;;;21.40;86.60;;;;;;5015824;28;20809;-78
2024/03/02 09:54:32;;;;;;;2.30;1.80;;;21.10;86.30;;;;;;5031213;28;20434;-77
2024/03/02 09:57:01;;;;;;;1.77;1.37;;;20.80;85.90;;;;;;5040758;28;20553;-77
2024/03/02 09:59:29;;;;;;;1.30;1.20;;;20.30;87.30;;;;;;5037405;28;20451;-77
2024/03/02 10:01:59;;;;;;;1.50;1.27;;;20.40;85.80;;;;;;5038948;28;20451;-77
2024/03/02 10:04:28;;;;;;;1.80;1.10;;;20.60;86.80;;;;;;5039982;28;20453;-77
2024/03/02 10:07:12;;;;;;;2.00;1.07;;;21.40;85.80;;;;;;5029096;28;20817;-78
2024/03/02 10:09:39;;;;;;;1.13;0.87;;;20.80;83.70;;;;;;5021486;28;20435;-78
2024/03/02 10:12:06;;;;;;;0.83;0.73;;;21.00;84.30;;;;;;5020476;28;20450;-79
2024/03/02 10:14:33;;;;;;;0.80;0.80;;;21.30;83.60;;;;;;5020848;28;20447;-78
2024/03/02 10:17:03;;;;;;;0.80;0.60;;;21.40;81.70;;;;;;5020554;28;20506;-78
2024/03/02 10:19:34;;;;;;;1.00;0.70;;;21.80;80.10;;;;;;5021063;28;20428;-78
2024/03/02 10:22:02;;;;;;;0.80;0.63;;;21.90;81.90;;;;;;5030938;28;20433;-79
2024/03/02 10:24:36;;;;;;;0.60;0.60;;;21.70;76.60;;;;;;5034575;28;20517;-81
2024/03/02 10:27:08;;;;;;;0.80;0.67;;;21.30;79.10;;;;;;5029404;28;20463;-81
2024/03/02 10:29:37;;;;;;;1.00;0.60;;;21.40;76.10;;;;;;5023561;28;20442;-82
2024/03/02 10:32:04;;;;;;;0.50;0.50;;;21.60;77.30;;;;;;5021064;28;20447;-81
2024/03/02 10:34:32;;;;;;;1.93;0.70;;;21.70;75.50;;;;;;5030415;28;20438;-80
2024/03/02 10:37:00;;;;;;;0.70;0.70;;;22.50;76.00;;;;;;5025882;28;21023;-82
2024/03/02 10:39:27;;;;;;;0.60;0.60;;;23.80;72.40;;;;;;5020929;28;20448;-82
2024/03/02 10:41:56;;;;;;;0.70;0.60;;;24.80;70.10;;;;;;5020822;28;20204;-82
2024/03/02 10:44:23;;;;;;;0.98;0.75;;;25.60;65.00;;;;;;5020366;28;20206;-82
2024/03/02 10:46:51;;;;;;;0.70;0.60;;;25.70;62.70;;;;;;5020436;28;20736;-82
2024/03/02 10:49:18;;;;;;;0.60;0.50;;;26.60;60.50;;;;;;5021069;28;20204;-83
2024/03/02 10:51:46;;;;;;;0.57;0.57;;;26.50;58.80;;;;;;5020470;28;20238;-82
2024/03/02 10:54:13;;;;;;;0.40;0.40;;;27.10;58.40;;;;;;5020965;28;20198;-82
2024/03/02 10:56:40;;;;;;;0.60;0.40;;;27.70;56.50;;;;;;5020560;28;20254;-82
2024/03/02 10:59:18;;;;;;;0.50;0.50;;;28.70;54.30;;;;;;5019841;28;20200;-83
2024/03/02 11:01:48;;;;;;;0.65;0.65;;;28.70;51.00;;;;;;5021269;28;20234;-83
2024/03/02 11:04:18;;;;;;;0.50;0.50;;;28.40;51.90;;;;;;5020158;28;20205;-83
2024/03/02 11:06:49;;;;;;;1.02;0.60;;;28.20;50.60;;;;;;5022560;28;20236;-83
2024/03/02 11:09:19;;;;;;;0.50;0.50;;;27.40;51.60;;;;;;5022295;28;20200;-83
2024/03/02 11:11:50;;;;;;;0.55;0.47;;;26.20;52.20;;;;;;5020285;28;20207;-84
2024/03/02 11:14:22;;;;;;;0.57;0.40;;;24.50;53.10;;;;;;5020731;28;20184;-83
2024/03/02 11:16:49;;;;;;;0.70;0.50;;;23.30;56.20;;;;;;5020034;28;20228;-82
2024/03/02 11:19:17;;;;;;;0.40;0.40;;;21.80;58.50;;;;;;5020139;28;20204;-82
2024/03/02 11:21:44;;;;;;;1.77;0.50;;;20.80;60.40;;;;;;5020775;28;20526;-83
2024/03/02 11:24:33;;;;;;;0.50;0.50;;;19.80;63.10;;;;;;5019291;28;20259;-83
2024/03/02 11:27:01;;;;;;;0.40;0.40;;;19.00;64.70;;;;;;5020233;28;20554;-83
2024/03/02 11:29:44;;;;;;;0.77;0.43;;;18.20;65.20;;;;;;5019405;28;20834;-83
2024/03/02 11:32:19;;;;;;;0.60;0.40;;;17.40;67.30;;;;;;5018349;28;20503;-83
2024/03/02 11:34:49;;;;;;;0.60;0.50;;;16.70;69.70;;;;;;5019533;28;20823;-83
2024/03/02 11:37:17;;;;;;;0.70;0.60;;;16.70;71.10;;;;;;5018531;28;21008;-82
2024/03/02 11:39:46;;;;;;;0.50;0.30;;;16.00;71.00;;;;;;5017894;28;20439;-82
2024/03/02 11:42:14;;;;;;;0.40;0.40;;;15.80;72.90;;;;;;5017694;28;20455;-82
2024/03/02 11:44:46;;;;;;;0.50;0.40;;;15.70;74.00;;;;;;5017772;28;20509;-82
2024/03/02 11:47:15;;;;;;;0.50;0.40;;;15.60;74.50;;;;;;5017309;28;20467;-87
2024/03/02 11:49:44;;;;;;;0.80;0.30;;;15.80;74.40;;;;;;5018108;28;20443;-82
2024/03/02 11:52:13;;;;;;;0.40;0.40;;;15.80;74.90;;;;;;5017185;28;20456;-80
2024/03/02 11:54:46;;;;;;;0.43;0.40;;;15.90;74.50;;;;;;5018914;28;20535;-82
2024/03/02 11:57:15;;;;;;;0.60;0.40;;;15.80;75.90;;;;;;5018263;28;20486;-82
2024/03/02 11:59:42;;;;;;;0.60;0.60;;;15.80;76.20;;;;;;5018603;28;20450;-82
2024/03/02 12:02:15;;;;;;;0.40;0.40;;;15.50;76.60;;;;;;5024846;28;20463;-81
2024/03/02 12:04:44;;;;;;;0.63;0.40;;;15.50;77.70;;;;;;5032534;28;20414;-81
2024/03/02 12:07:11;;;;;;;2.23;0.60;;;15.60;77.00;;;;;;5040556;28;20486;-81
2024/03/02 12:09:38;;;;;;;0.40;0.40;;;15.60;77.00;;;;;;5033669;28;20444;-81
2024/03/02 12:12:07;;;;;;;1.57;0.40;;;15.50;78.60;;;;;;5019713;28;20451;-82
2024/03/02 12:14:36;;;;;;;0.40;0.40;;;15.40;78.40;;;;;;5019417;28;20440;-81
2024/03/02 12:17:03;;;;;;;0.40;0.40;;;15.20;79.60;;;;;;5018551;28;20497;-81
2024/03/02 12:19:31;;;;;;;0.53;0.47;;;15.10;80.20;;;;;;5019132;28;20448;-81
2024/03/02 12:21:58;;;;;;;0.50;0.50;;;15.00;80.70;;;;;;5018581;28;20451;-82
2024/03/02 12:24:27;;;;;;;0.43;0.40;;;14.80;81.50;;;;;;5018236;28;20996;-82
2024/03/02 12:26:54;;;;;;;1.77;0.73;;;14.60;81.80;;;;;;5019389;28;20463;-81
2024/03/02 12:29:22;;;;;;;1.53;0.50;;;14.50;82.90;;;;;;5018750;28;20440;-82
2024/03/02 12:31:50;;;;;;;0.47;0.40;;;14.80;84.10;;;;;;5018776;28;20451;-81
2024/03/02 12:34:18;;;;;;;0.50;0.40;;;14.40;80.70;;;;;;5018143;28;20463;-82
2024/03/02 12:36:49;;;;;;;0.40;0.40;;;14.40;80.40;;;;;;5018018;28;20988;-81
2024/03/02 12:39:16;;;;;;;0.50;0.40;;;14.20;80.60;;;;;;5017524;28;20428;-81
2024/03/02 12:41:43;;;;;;;0.40;0.30;;;14.10;81.90;;;;;;5017995;28;20444;-82
2024/03/02 12:44:10;;;;;;;0.50;0.40;;;14.10;83.50;;;;;;5018183;28;20455;-82
2024/03/02 12:46:37;;;;;;;0.40;0.30;;;14.10;83.90;;;;;;5018443;28;20467;-82
2024/03/02 12:49:10;;;;;;;0.50;0.40;;;14.00;82.60;;;;;;5018280;28;20929;-82
2024/03/02 12:51:37;;;;;;;1.00;0.50;;;13.90;83.50;;;;;;5018418;28;20424;-82
2024/03/02 12:54:05;;;;;;;1.17;0.50;;;14.00;83.00;;;;;;5017393;28;20455;-82
2024/03/02 12:56:32;;;;;;;0.70;0.40;;;13.90;83.50;;;;;;5018215;28;20507;-82
2024/03/02 12:58:59;;;;;;;0.40;0.30;;;13.90;83.70;;;;;;5017803;28;20448;-82